Hit Tracker is now ESPN Home Run Tracker! Hit Tracker founder Greg Rybarczyk is now collaborating with the ESPN Stats & Information Group to continue tracking all MLB home runs, and helping baseball fans know "How Far It Really Went!™" Please credit any information on this site to ESPN Stats & Information Group. For more information and analysis on home runs, please contact founder Greg Rybarczyk. E-Mail ESPN Home Run Tracker
Main Page | Ballparks | Park Overlays | Glossary | Highlight Homers | Feedback | Bio | 3 Types of HR's | AAA Home Run Derby Last Updated: July 27, 2016, 10:22 pm PST
If you want to know "How Far It Really Went!", then you've come to the right place! Welcome to the ESPN Home Run Tracker, where you can find accurate, transparently verifiable distances for every home run hit in MLB games. Please also check out the ESPN MLB Scoreboard throughout the 2016 season! Contact us at grybar@hittrackeronline.com.
Season:
Ballpark detail for Citizens Bank Park
Ballpark # of Home Runs HR per game Avg.
True
Distance
Avg.
Speed
Off
Bat
Avg.
Std.
Dist.
Citizens Bank Park 117 2.29 394.9 103.5 392.7

Scatter Plot of Home Runs Citizens Bank Park
 Overlay Ballpark:
Without range rings   With range rings

2016 Season Home Runs for Citizens Bank Park
Click headers to sort
Date Video Path Hitter Hitter
Team
Pitcher Pitcher
Team
INN Ballpark Type/
Luck
 ^
True
Dist.
Speed
Off
Bat
Elev.
Angle
Horiz.
Angle
Apex Impact Due To: Std.
Dist.
#
Parks
Wind Temp. Alt.
04/19/16 Video View Walker, Neil NYM Oberholtzer, Brett PHI 6 Citizens Ban... PL 368 100.0 28.3 116.1 78 -1 -1 0 370 27
04/19/16 Video View Cespedes, Yoenis NYM Velasquez, Vince PHI 3 Citizens Ban... PL 403 109.3 21.6 104.3 62 0 -1 0 403 30
04/18/16 Video View Wright, David NYM Araujo, Elvis PHI 9 Citizens Ban... PL 366 97.9 35.6 73.1 123 0 -1 0 367 15
04/18/16 Video View Walker, Neil NYM Hernandez, David PHI 8 Citizens Ban... PL 374 100.3 29.2 117.7 80 1 0 0 372 30
04/17/16 Video View Harper, Bryce WSH Gomez, Jeanmar PHI 10 Citizens Ban... PL 428 113.3 19.6 82.5 60 -1 0 0 428 29
04/17/16 Video View Ruiz, Carlos PHI Gonzalez, Gio WSH 2 Citizens Ban... PL 364 99.7 27.8 118.5 71 1 0 0 363 23
04/13/16 Video View Franco, Maikel PHI Rea, Colin SD 1 Citizens Ban... PL 400 107.5 23.3 107.4 66 0 -1 0 401 30
04/14/16 Video View Howard, Ryan PHI Pomeranz, Drew SD 2 Citizens Ban... PL 411 102.5 28.2 97.6 99 0 -1 0 413 30
04/15/16 Video View Taylor, Michael WSH Hellickson, Jeremy PHI 1 Citizens Ban... PL 368 103.8 25.0 119.9 62 0 0 0 369 27
04/15/16 Video View Harper, Bryce WSH Oberholtzer, Brett PHI 6 Citizens Ban... PL 392 101.2 32.7 74.4 115 2 -3 0 392 30
04/15/16 Video View Howard, Ryan PHI Petit, Yusmeiro WSH 9 Citizens Ban... PL 380 102.4 25.2 71.0 69 0 -1 0 381 23
04/11/16 Video View Myers, Wil SD Nola, Aaron PHI 4 Citizens Ban... PL 399 101.1 27.7 105.1 80 8 0 0 392 26
04/19/16 Video View Duda, Lucas NYM Oberholtzer, Brett PHI 7 Citizens Ban... PL 420 105.5 23.6 85.5 81 -1 0 0 421 26
04/19/16 Video View Walker, Neil NYM Oberholtzer, Brett PHI 7 Citizens Ban... PL 349 95.8 33.1 117.1 95 -3 -1 0 354 20
04/20/16 Video View Cespedes, Yoenis NYM Hellickson, Jeremy PHI 5 Citizens Ban... PL 392 105.1 23.1 104.1 65 -1 -1 0 393 24
04/29/16 Video View Howard, Ryan PHI Allen, Cody CLE 11 Citizens Ban... PL 385 105.8 23.0 71.8 62 0 -1 0 386 24
04/30/16 Video View Galvis, Freddy PHI Bauer, Trevor CLE 1 Citizens Ban... PL 374 98.8 28.0 71.2 79 1 -1 0 374 21
05/01/16 Video View Santana, Carlos CLE Neris, Hector PHI 9 Citizens Ban... PL 374 98.4 30.9 73.5 100 -2 -3 0 380 25
05/18/16 Video View Goeddel, Tyler PHI Urena, Jose MIA 8 Citizens Ban... PL 418 107.1 21.7 95.1 73 1 0 0 418 25
05/20/16 Video View Freeman, Freddie ATL Nola, Aaron PHI 3 Citizens Ban... PL 389 99.1 36.1 75.3 125 16 0 0 372 6
05/20/16 Video View Freeman, Freddie ATL Oberholtzer, Brett PHI 9 Citizens Ban... PL 366 100.7 25.8 114.1 65 0 -1 0 366 13
05/30/16 Video View Murphy, Daniel WSH Hellickson, Jeremy PHI 4 Citizens Ban... PL 406 101.0 32.3 78.0 112 8 1 0 397 26
05/30/16 Video View Galvis, Freddy PHI Roark, Tanner WSH 6 Citizens Ban... PL 400 103.8 25.1 76.1 74 0 0 0 400 29
05/31/16 Video View Werth, Jayson WSH Nola, Aaron PHI 1 Citizens Ban... PL 396 99.9 31.8 100.4 112 -1 3 0 394 23
05/31/16 Video View Murphy, Daniel WSH Nola, Aaron PHI 6 Citizens Ban... PL 365 99.3 36.6 67.3 125 0 2 0 362 25
05/31/16 Video View Espinosa, Danny WSH Murray, Colton PHI 9 Citizens Ban... PL 380 106.2 24.6 60.8 63 0 0 0 380 29
06/01/16 Video View Ramos, Wilson WSH Morgan, Adam PHI 6 Citizens Ban... PL 374 98.1 31.6 67.5 94 3 1 0 370 24
06/01/16 Video View Espinosa, Danny WSH Morgan, Adam PHI 6 Citizens Ban... PL 411 112.6 20.7 104.3 57 0 0 0 411 30
06/01/16 Video View Goeddel, Tyler PHI Scherzer, Max WSH 7 Citizens Ban... PL 391 104.2 25.8 111.8 71 1 0 0 389 30
06/02/16 Video View Carter, Chris MIL Eickhoff, Jerad PHI 4 Citizens Ban... PL 406 100.8 31.7 97.7 113 4 0 0 402 21
06/02/16 Video View Franco, Maikel PHI Anderson, Chase MIL 4 Citizens Ban... PL 381 108.4 23.9 123.3 60 0 0 0 381 30
06/03/16 Video View Villar, Jonathan MIL Hernandez, David PHI 7 Citizens Ban... PL 350 96.1 33.4 121.6 92 0 0 0 350 29
06/04/16 Video View Joseph, Tommy PHI Guerra, Junior MIL 2 Citizens Ban... PL 424 102.7 31.2 90.6 117 4 2 0 418 27
06/04/16 Video View Santana, Domingo MIL Neris, Hector PHI 8 Citizens Ban... PL 381 101.9 25.9 110.4 70 0 1 0 379 23
06/05/16 Video View Franco, Maikel PHI Peralta, Wily MIL 3 Citizens Ban... PL 386 110.9 21.9 118.6 54 2 1 0 384 30
06/16/16 Video View Saunders, Michael TOR Nola, Aaron PHI 1 Citizens Ban... PL 390 102.3 25.6 74.9 75 0 0 0 391 24
06/16/16 Video View Pillar, Kevin TOR Bailey, Andrew PHI 7 Citizens Ban... PL 399 106.4 24.0 107.7 69 0 0 0 399 30
06/16/16 Video View Travis, Devon TOR Hernandez, David PHI 8 Citizens Ban... PL 380 101.9 29.2 118.2 83 0 0 0 380 30
06/16/16 Video View Pillar, Kevin TOR Hernandez, David PHI 8 Citizens Ban... PL 379 106.7 24.2 120.3 61 0 0 0 379 30
06/17/16 Video View Tomas, Yasmany ARI Morgan, Adam PHI 4 Citizens Ban... PL 389 101.1 27.1 106.8 78 2 1 0 387 27
06/17/16 Video View O'Brien, Peter ARI Morgan, Adam PHI 5 Citizens Ban... PL 412 105.0 25.6 74.3 78 6 0 0 405 29
06/17/16 Video View Castillo, Welington ARI Araujo, Elvis PHI 7 Citizens Ban... PL 433 107.2 23.1 89.3 78 0 0 0 433 27
06/18/16 Video View Herrera, Odubel PHI Greinke, Zack ARI 1 Citizens Ban... PL 405 104.4 24.4 101.7 72 1 1 0 404 27
06/18/16 Video View Ahmed, Nick ARI Eickhoff, Jerad PHI 5 Citizens Ban... PL 397 104.4 24.1 104.4 68 0 0 0 395 26
06/18/16 Video View Goldschmidt, Paul ARI Eickhoff, Jerad PHI 5 Citizens Ban... PL 392 100.9 27.9 107.6 81 3 2 0 387 28
06/18/16 Video View Lamb, Jake ARI Gonzalez, Severino PHI 7 Citizens Ban... PL 367 101.5 25.7 63.3 65 1 1 0 365 22
07/01/16 Video View Herrera, Odubel PHI Kennedy, Ian KC 1 Citizens Ban... PL 410 103.2 24.6 96.3 78 0 0 0 409 20
07/02/16 Video View Morales, Kendrys KC Nola, Aaron PHI 2 Citizens Ban... PL 385 99.6 32.8 68.3 103 6 1 0 378 29
07/03/16 Video View Rupp, Cameron PHI Ventura, Yordano KC 1 Citizens Ban... PL 362 97.8 34.6 65.9 109 -2 2 0 363 25
07/03/16 Video View Franco, Maikel PHI Flynn, Brian KC 8 Citizens Ban... PL 431 114.6 19.9 99.6 60 0 1 0 431 30
07/04/16 Video View Herrera, Odubel PHI De La Cruz, Joel ATL 2 Citizens Ban... PL 426 109.3 21.6 83.0 71 0 0 -1 426 29
07/05/16 Video View Bourjos, Peter PHI Foltynewicz, Mike ATL 1 Citizens Ban... PL 378 100.2 34.8 106.6 127 -7 4 0 380 25
07/05/16 Video View Asche, Cody PHI Foltynewicz, Mike ATL 4 Citizens Ban... PL 418 102.8 28.0 82.7 96 1 2 0 415 28
07/05/16 Video View Joseph, Tommy PHI Foltynewicz, Mike ATL 6 Citizens Ban... PL 425 108.8 22.6 99.7 71 2 1 0 422 30
07/06/16 Video View Galvis, Freddy PHI Vizcaino, Arodys ATL 8 Citizens Ban... PL 389 103.8 25.2 69.6 68 2 1 0 386 25
07/15/16 Video View Lagares, Juan NYM Hellickson, Jeremy PHI 3 Citizens Ban... PL 420 100.8 31.0 99.6 101 16 4 0 401 18
07/16/16 Video View Howard, Ryan PHI Verrett, Logan NYM 2 Citizens Ban... PL 425 108.2 23.0 80.0 70 3 0 0 422 29
07/17/16 Video View Cabrera, Asdrubal NYM Bailey, Andrew PHI 8 Citizens Ban... PL 391 101.3 27.4 69.4 74 7 2 0 382 24
07/18/16 Video View Prado, Martin MIA Oberholtzer, Brett PHI 11 Citizens Ban... PL 402 102.8 27.9 104.7 91 -3 0 0 403 30
07/20/16 Video View Johnson, Chris MIA Hellickson, Jeremy PHI 5 Citizens Ban... PL 378 107.9 23.1 119.4 57 0 1 0 378 29
07/21/16 Video View Yelich, Christian MIA Eickhoff, Jerad PHI 4 Citizens Ban... PL 390 98.9 28.8 104.7 84 6 2 0 383 15
04/18/16 Video View Duda, Lucas NYM Hernandez, David PHI 8 Citizens Ban... ND 422 109.5 26.2 68.5 83 1 0 0 421 30
04/18/16 Video View Wright, David NYM Eickhoff, Jerad PHI 1 Citizens Ban... ND 411 104.0 28.7 73.3 94 2 1 0 408 30
04/16/16 Video View Harper, Bryce WSH Nola, Aaron PHI 5 Citizens Ban... ND 389 104.4 29.6 58.9 87 0 -2 0 390 30
04/16/16 Video View Rupp, Cameron PHI Scherzer, Max WSH 5 Citizens Ban... ND 408 105.5 29.3 110.5 99 0 -3 0 410 30
04/19/16 Video View Granderson, Curtis NYM Russell, James PHI 8 Citizens Ban... ND 396 102.8 30.9 74.0 110 -6 -2 0 403 30
04/20/16 Video View Duda, Lucas NYM Hellickson, Jeremy PHI 5 Citizens Ban... ND 389 103.9 31.5 61.6 100 -1 -3 0 392 30
05/16/16 Video View Ozuna, Marcell MIA Eickhoff, Jerad PHI 2 Citizens Ban... ND 434 108.2 28.7 100.4 115 -5 -1 0 440 30
06/05/16 Video View Paredes, Jimmy PHI Ramirez, Neil MIL 5 Citizens Ban... ND 390 108.2 24.3 60.0 62 2 1 0 387 30
06/05/16 Video View Rupp, Cameron PHI Ramirez, Neil MIL 5 Citizens Ban... ND 428 109.3 26.0 109.5 81 4 1 0 423 30
06/06/16 Video View Galvis, Freddy PHI Grimm, Justin CHC 9 Citizens Ban... ND 390 104.4 27.2 66.0 80 -3 0 0 393 30
06/08/16 Video View Bryant, Kris CHC Bailey, Andrew PHI 6 Citizens Ban... ND 415 108.3 26.6 111.8 85 1 -1 0 415 30
06/15/16 Video View Encarnacion, Edwin TOR Hellickson, Jeremy PHI 2 Citizens Ban... ND 413 106.9 30.4 118.3 97 5 1 0 407 30
06/15/16 Video View Asche, Cody PHI Estrada, Marco TOR 2 Citizens Ban... ND 391 103.2 34.9 65.7 122 5 1 0 385 30
06/15/16 Video View Donaldson, Josh TOR Neris, Hector PHI 8 Citizens Ban... ND 437 111.9 24.9 107.6 82 1 1 0 436 30
06/16/16 Video View Encarnacion, Edwin TOR Nola, Aaron PHI 1 Citizens Ban... ND 416 106.6 29.2 110.5 100 0 0 0 415 30
06/17/16 Video View Tomas, Yasmany ARI Morgan, Adam PHI 5 Citizens Ban... ND 426 109.9 35.9 119.3 134 24 1 0 401 30
06/17/16 Video View O'Brien, Peter ARI Araujo, Elvis PHI 7 Citizens Ban... ND 403 102.9 30.0 110.8 92 7 0 0 396 30
06/17/16 Video View Goldschmidt, Paul ARI Araujo, Elvis PHI 8 Citizens Ban... ND 415 103.0 32.5 103.7 116 11 0 0 404 30
06/20/16 Video View Lamb, Jake ARI Hellickson, Jeremy PHI 1 Citizens Ban... ND 412 107.3 25.8 70.9 81 -1 2 0 412 30
07/01/16 Video View Morales, Kendrys KC Hernandez, David PHI 8 Citizens Ban... ND 413 105.0 26.0 75.8 80 3 1 0 409 29
07/03/16 Video View Asche, Cody PHI Ventura, Yordano KC 3 Citizens Ban... ND 425 108.1 27.5 69.4 89 4 1 0 420 30
07/03/16 Video View Gordon, Alex KC Velasquez, Vince PHI 5 Citizens Ban... ND 433 105.9 34.2 73.0 128 25 2 0 406 30
07/04/16 Video View Franco, Maikel PHI De La Cruz, Joel ATL 2 Citizens Ban... ND 440 106.8 27.2 98.5 96 4 1 0 435 30
07/05/16 Video View Franco, Maikel PHI Foltynewicz, Mike ATL 6 Citizens Ban... ND 407 105.1 27.4 110.5 85 1 2 0 404 30
07/05/16 Video View Inciarte, Ender ATL Eflin, Zach PHI 7 Citizens Ban... ND 405 104.4 25.8 74.3 77 1 1 0 403 30
07/17/16 Video View Granderson, Curtis NYM Eflin, Zach PHI 3 Citizens Ban... ND 432 104.4 32.9 79.8 123 15 5 0 414 29
07/18/16 Video View Joseph, Tommy PHI Fernandez, Jose MIA 7 Citizens Ban... ND 411 103.6 31.2 107.5 108 6 1 0 404 30
07/19/16 Video View Yelich, Christian MIA Velasquez, Vince PHI 4 Citizens Ban... ND 456 112.9 22.6 83.0 84 -1 1 0 455 30
07/19/16 Video View Joseph, Tommy PHI Urena, Jose MIA 4 Citizens Ban... ND 411 108.0 33.7 116.7 123 0 4 0 407 30
04/19/16 Video View Conforto, Michael NYM Velasquez, Vince PHI 1 Citizens Ban... JE 363 95.7 30.5 74.3 92 -4 0 0 366 7
04/16/16 Video View Heisey, Chris WSH Russell, James PHI 9 Citizens Ban... JE 391 104.9 22.2 78.6 63 0 -1 0 392 15
04/20/16 Video View Galvis, Freddy PHI Colon, Bartolo NYM 2 Citizens Ban... JE 395 100.1 32.1 96.5 119 -2 -2 0 399 14
04/29/16 Video View Kipnis, Jason CLE Morgan, Adam PHI 5 Citizens Ban... JE 382 98.2 29.3 78.0 93 0 -2 0 384 14
05/14/16 Video View Herrera, Odubel PHI Ramirez, J.C. CIN 7 Citizens Ban... JE/L 360 100.6 23.2 73.0 59 0 0 0 361 1
05/15/16 Video View Suarez, Eugenio CIN Morgan, Adam PHI 4 Citizens Ban... JE 420 103.5 26.6 93.9 97 1 -1 0 421 26
05/16/16 Video View Bour, Justin MIA Eickhoff, Jerad PHI 6 Citizens Ban... JE 407 102.1 25.4 95.6 83 0 0 0 407 17
05/17/16 Video View Joseph, Tommy PHI Chen, Wei-Yin MIA 2 Citizens Ban... JE 356 105.5 23.3 127.3 53 0 -1 0 357 27
05/20/16 Video View Markakis, Nick ATL Nola, Aaron PHI 7 Citizens Ban... JE 362 95.0 31.8 111.6 87 7 -1 0 356 2
05/22/16 Video View Rupp, Cameron PHI Kelly, Casey ATL 2 Citizens Ban... JE 348 102.0 24.7 54.7 59 -3 0 0 351 25
06/02/16 Video View Villar, Jonathan MIL Gomez, Jeanmar PHI 9 Citizens Ban... JE 417 105.5 23.2 84.6 75 0 0 0 417 24
06/03/16 Video View Rupp, Cameron PHI Nelson, Jimmy MIL 3 Citizens Ban... JE 400 105.6 22.2 80.0 64 0 0 0 400 17
06/03/16 Video View Blanco, Andres PHI Nelson, Jimmy MIL 4 Citizens Ban... JE 353 102.0 24.0 60.5 56 0 0 0 353 11
06/04/16 Video View Villar, Jonathan MIL Hellickson, Jeremy PHI 1 Citizens Ban... JE 361 103.0 23.8 62.4 56 0 1 0 360 12
06/04/16 Video View Hernandez, Cesar PHI Guerra, Junior MIL 2 Citizens Ban... JE 411 100.6 27.9 88.5 92 2 2 0 407 11
06/06/16 Video View Heyward, Jason CHC Morgan, Adam PHI 4 Citizens Ban... JE 348 98.3 27.0 59.0 66 -2 1 0 349 23
06/06/16 Video View Joseph, Tommy PHI Rondon, Hector CHC 9 Citizens Ban... JE 419 107.4 20.6 88.3 67 1 0 0 418 21
06/07/16 Video View Howard, Ryan PHI Hendricks, Kyle CHC 4 Citizens Ban... JE/L 381 96.6 30.3 79.2 93 2 1 0 378 4
06/08/16 Video View Zobrist, Ben CHC Bailey, Andrew PHI 6 Citizens Ban... JE 416 106.1 22.6 84.6 72 0 0 0 417 23
07/02/16 Video View Morales, Kendrys KC Morgan, Adam PHI 8 Citizens Ban... JE 345 102.1 40.8 114.9 155 5 3 0 338 3
07/04/16 Video View Aybar, Erick ATL Eickhoff, Jerad PHI 1 Citizens Ban... JE 360 101.7 25.6 57.1 59 3 0 0 357 20
07/06/16 Video View Franco, Maikel PHI Withrow, Chris ATL 6 Citizens Ban... JE 373 98.9 26.1 73.3 70 1 1 0 371 4
07/15/16 Video View Walker, Neil NYM Hellickson, Jeremy PHI 6 Citizens Ban... JE 364 94.3 33.3 112.3 92 10 3 0 351 2
07/20/16 Video View Goeddel, Tyler PHI Chen, Wei-Yin MIA 1 Citizens Ban... JE 346 93.6 31.4 65.2 82 0 1 0 345 3
07/21/16 Video View Howard, Ryan PHI Koehler, Tom MIA 4 Citizens Ban... JE 363 97.3 28.1 112.1 74 1 1 0 361 10
07/21/16 Video View Galvis, Freddy PHI Koehler, Tom MIA 8 Citizens Ban... JE 414 102.3 25.4 86.6 76 2 1 0 410 18
05/31/16 Video View Drew, Stephen WSH Murray, Colton PHI 9 Citizens Ban... ITP/L 388 98.7 33.5 81.8 120 0 2 0 387 8


About HitTracker | Contact Us
© 2006-2016 HitTrackerOnline